Time;durP1;ratioP1;P1;durP2;ratioP2;P2;SDS_P1;SDS_P2;PMS_P1;PMS_P2;Temp;Humidity;BMP_temperature;BMP_pressure;BME280_temperature;BME280_humidity;BME280_pressure;Samples;Min_cycle;Max_cycle;Signal;HPM_P1;HPM_P2
2021/01/11 00:00:27;;;;;;;;;;;;;;;-0.71;89.46;101456.80;1636112;86;20655;-77
2021/01/11 00:02:52;;;;;;;;;;;;;;;-0.73;89.37;101447.37;1654985;86;21220;-77
2021/01/11 00:05:19;;;;;;;;;;;;;;;-0.73;89.42;101444.84;1647568;86;20175;-77
2021/01/11 00:07:45;;;;;;;;;;;;;;;-0.72;89.42;101447.84;1646752;86;20294;-77
2021/01/11 00:10:12;;;;;;;;;;;;;;;-0.73;89.40;101442.30;1634325;86;20566;-77
2021/01/11 00:12:39;;;;;;;;;;;;;;;-0.74;89.35;101449.45;1640919;86;20270;-77
2021/01/11 00:15:07;;;;;;;;;;;;;;;-0.77;89.34;101441.30;1637764;85;21248;-78
2021/01/11 00:17:33;;;;;;;;;;;;;;;-0.77;89.39;101435.35;1637061;86;20259;-77
2021/01/11 00:19:59;;;;;;;;;;;;;;;-0.78;89.39;101442.10;1645079;86;20296;-77
2021/01/11 00:22:25;;;;;;;;;;;;;;;-0.76;89.44;101439.63;1634565;86;20335;-77
2021/01/11 00:24:51;;;;;;;;;;;;;;;-0.77;89.44;101429.87;1640098;85;20336;-77
2021/01/11 00:27:17;;;;;;;;;;;;;;;-0.79;89.41;101427.67;1658065;86;21184;-77
2021/01/11 00:29:43;;;;;;;;;;;;;;;-0.78;89.41;101429.81;1646870;86;20372;-77
2021/01/11 00:32:09;;;;;;;;;;;;;;;-0.80;89.40;101423.80;1638250;86;20309;-77
2021/01/11 00:34:35;;;;;;;;;;;;;;;-0.81;89.43;101424.59;1646570;86;20301;-77
2021/01/11 00:37:01;;;;;;;;;;;;;;;-0.81;89.52;101421.66;1642090;86;20266;-77
2021/01/11 00:39:28;;;;;;;;;;;;;;;-0.80;89.53;101423.39;1626525;86;21283;-77
2021/01/11 00:42:00;;;;;;;;;;;;;;;-0.79;89.58;101419.19;1644009;86;20312;-77
2021/01/11 00:44:27;;;;;;;;;;;;;;;-0.80;89.53;101426.34;1638280;86;20351;-77
2021/01/11 00:46:52;;;;;;;;;;;;;;;-0.81;89.52;101424.59;1628856;86;20278;-77
2021/01/11 00:49:19;;;;;;;;;;;;;;;-0.84;89.50;101420.26;1630575;86;20289;-77
2021/01/11 00:51:46;;;;;;;;;;;;;;;-0.84;89.53;101424.47;1624082;86;21286;-77
2021/01/11 00:54:12;;;;;;;;;;;;;;;-0.86;89.50;101420.59;1633328;86;20271;-76
2021/01/11 00:56:38;;;;;;;;;;;;;;;-0.86;89.50;101418.45;1642048;86;20283;-76
2021/01/11 00:59:04;;;;;;;;;;;;;;;-0.87;89.47;101423.94;1635628;86;20202;-76
2021/01/11 01:01:29;;;;;;;;;;;;;;;-0.91;89.47;101419.52;1639119;86;20224;-76
2021/01/11 01:03:55;;;;;;;;;;;;;;;-0.89;89.50;101428.48;1637773;86;22327;-76
2021/01/11 01:06:21;;;;;;;;;;;;;;;-0.89;89.57;101428.08;1640721;86;21492;-76
2021/01/11 01:08:47;;;;;;;;;;;;;;;-0.89;89.57;101426.80;1645656;86;20270;-76
2021/01/11 01:11:13;;;;;;;;;;;;;;;-0.89;89.58;101423.00;1632081;86;20282;-76
2021/01/11 01:13:39;;;;;;;;;;;;;;;-0.90;89.50;101419.13;1638138;86;20217;-76
2021/01/11 01:16:05;;;;;;;;;;;;;;;-0.92;89.51;101422.87;1627484;86;20691;-76
2021/01/11 01:18:32;;;;;;;;;;;;;;;-0.91;89.57;101419.93;1640520;86;20282;-76
2021/01/11 01:20:58;;;;;;;;;;;;;;;-0.92;89.50;101415.66;1642377;86;20288;-76
2021/01/11 01:23:24;;;;;;;;;;;;;;;-0.95;89.50;101413.84;1631409;85;20214;-76
2021/01/11 01:25:50;;;;;;;;;;;;;;;-0.96;89.52;101413.38;1632419;86;20310;-76
2021/01/11 01:28:16;;;;;;;;;;;;;;;-0.95;89.56;101405.37;1641220;85;21826;-76
2021/01/11 01:30:42;;;;;;;;;;;;;;;-0.98;89.55;101407.38;1637157;85;20283;-76
2021/01/11 01:33:08;;;;;;;;;;;;;;;-1.00;89.51;101402.23;1637192;85;20266;-76
2021/01/11 01:35:34;;;;;;;;;;;;;;;-1.00;89.53;101400.09;1631312;86;20247;-76
2021/01/11 01:38:00;;;;;;;;;;;;;;;-1.02;89.53;101402.97;1635750;86;20315;-76
2021/01/11 01:40:26;;;;;;;;;;;;;;;-1.03;89.54;101406.30;1628271;86;21163;-76
2021/01/11 01:42:52;;;;;;;;;;;;;;;-1.03;89.59;101404.63;1635440;86;20833;-76
2021/01/11 01:45:19;;;;;;;;;;;;;;;-1.02;89.58;101406.77;1635354;86;21080;-76
2021/01/11 01:47:46;;;;;;;;;;;;;;;-1.03;89.63;101403.77;1657170;86;20277;-76
2021/01/11 01:50:12;;;;;;;;;;;;;;;-1.03;89.58;101394.88;1647429;85;20257;-76
2021/01/11 01:52:39;;;;;;;;;;;;;;;-1.03;89.62;101398.69;1658275;85;21186;-76
2021/01/11 01:55:08;;;;;;;;;;;;;;;-1.05;89.57;101396.52;1660698;86;20526;-76
2021/01/11 01:57:34;;;;;;;;;;;;;;;-1.06;89.51;101406.20;1651220;85;20265;-76
2021/01/11 02:00:01;;;;;;;;;;;;;;;-1.09;89.54;101400.59;1637799;85;20529;-76
2021/01/11 02:02:26;;;;;;;;;;;;;;;-1.08;89.59;101400.19;1644138;86;20259;-76
2021/01/11 02:04:52;;;;;;;;;;;;;;;-1.09;89.58;101398.05;1644453;86;21120;-76
2021/01/11 02:07:41;;;;;;;;;;;;;;;-1.10;89.60;101401.80;1633003;86;20286;-76
2021/01/11 02:10:28;;;;;;;;;;;;;;;-1.10;89.58;101396.72;1634540;86;20293;-76
2021/01/11 02:13:14;;;;;;;;;;;;;;;-1.09;89.62;101392.98;1639391;86;20242;-76
2021/01/11 02:15:47;;;;;;;;;;;;;;;-1.09;89.62;101389.57;1644903;86;20601;-76
2021/01/11 02:18:15;;;;;;;;;;;;;;;-1.10;89.60;101396.31;1655337;83;21162;-76
2021/01/11 02:21:19;;;;;;;;;;;;;;;-1.11;89.56;101394.58;1639045;86;20656;-76
2021/01/11 02:23:57;;;;;;;;;;;;;;;-1.11;89.55;101389.51;1650828;86;20286;-76
2021/01/11 02:26:43;;;;;;;;;;;;;;;-1.11;89.60;101389.91;1643026;86;20269;-76
2021/01/11 02:29:30;;;;;;;;;;;;;;;-1.11;89.60;101394.98;1641895;86;20558;-76
2021/01/11 02:31:58;;;;;;;;;;;;;;;-1.10;89.63;101395.05;1652455;86;21221;-76
2021/01/11 02:34:24;;;;;;;;;;;;;;;-1.10;89.62;101396.72;1641069;86;20448;-76
2021/01/11 02:36:51;;;;;;;;;;;;;;;-1.10;89.62;101392.91;1635028;86;20468;-76
2021/01/11 02:39:17;;;;;;;;;;;;;;;-1.11;89.57;101388.23;1635462;86;20483;-76
2021/01/11 02:41:43;;;;;;;;;;;;;;;-1.11;89.58;101379.36;1657891;86;20249;-76
2021/01/11 02:44:09;;;;;;;;;;;;;;;-1.12;89.57;101375.48;1633444;86;22131;-76
2021/01/11 02:46:35;;;;;;;;;;;;;;;-1.14;89.51;101374.55;1635377;86;20676;-76
2021/01/11 02:49:20;;;;;;;;;;;;;;;-1.16;89.52;101371.08;1643210;86;20270;-76
2021/01/11 02:52:01;;;;;;;;;;;;;;;-1.19;89.51;101367.14;1639290;86;21132;-76
2021/01/11 02:54:36;;;;;;;;;;;;;;;-1.20;89.50;101373.02;1629972;86;20278;-76
2021/01/11 02:57:05;;;;;;;;;;;;;;;-1.23;89.49;101367.80;1646540;86;21355;-76
2021/01/11 02:59:32;;;;;;;;;;;;;;;-1.25;89.48;101365.20;1634317;86;20287;-76
2021/01/11 03:02:07;;;;;;;;;;;;;;;-1.26;89.50;101362.59;1627803;86;20282;-76
2021/01/11 03:04:33;;;;;;;;;;;;;;;-1.30;89.44;101356.92;1631548;86;20255;-76
2021/01/11 03:07:01;;;;;;;;;;;;;;;-1.32;89.45;101352.18;1628548;86;20298;-76
2021/01/11 03:09:28;;;;;;;;;;;;;;;-1.32;89.49;101355.98;1646730;86;21083;-76
2021/01/11 03:11:54;;;;;;;;;;;;;;;-1.32;89.52;101352.18;1640510;86;20262;-76
2021/01/11 03:14:20;;;;;;;;;;;;;;;-1.36;89.47;101348.64;1627698;86;20278;-76
2021/01/11 03:16:46;;;;;;;;;;;;;;;-1.36;89.50;101347.38;1633751;85;20256;-76
2021/01/11 03:19:12;;;;;;;;;;;;;;;-1.39;89.47;101346.84;1644591;86;20221;-76
2021/01/11 03:21:39;;;;;;;;;;;;;;;-1.42;89.46;101344.16;1641084;86;21252;-76
2021/01/11 03:24:06;;;;;;;;;;;;;;;-1.44;89.43;101344.50;1652572;85;20294;-76
2021/01/11 03:26:31;;;;;;;;;;;;;;;-1.46;89.45;101339.76;1620837;86;20957;-76
2021/01/11 03:28:58;;;;;;;;;;;;;;;-1.48;89.46;101336.28;1650256;86;20206;-76
2021/01/11 03:31:23;;;;;;;;;;;;;;;-1.49;89.50;101335.82;1629649;86;20287;-76
2021/01/11 03:33:50;;;;;;;;;;;;;;;-1.49;89.51;101332.02;1650967;86;22055;-76
2021/01/11 03:36:16;;;;;;;;;;;;;;;-1.49;89.51;101323.14;1632403;86;20269;-76
2021/01/11 03:38:43;;;;;;;;;;;;;;;-1.49;89.50;101326.08;1646251;86;20289;-76
2021/01/11 03:41:09;;;;;;;;;;;;;;;-1.49;89.51;101322.27;1637310;86;20485;-76
2021/01/11 03:43:39;;;;;;;;;;;;;;;-1.49;89.50;101323.14;1630067;86;20569;-76
2021/01/11 03:46:06;;;;;;;;;;;;;;;-1.50;89.47;101322.67;1632588;86;21182;-76
2021/01/11 03:48:33;;;;;;;;;;;;;;;-1.50;89.49;101315.47;1643474;85;20545;-76
2021/01/11 03:50:59;;;;;;;;;;;;;;;-1.50;89.47;101309.98;1654320;86;20266;-76
2021/01/11 03:53:25;;;;;;;;;;;;;;;-1.51;89.48;101303.58;1636302;86;20604;-76
2021/01/11 03:55:51;;;;;;;;;;;;;;;-1.50;89.48;101304.05;1643101;86;20260;-76
2021/01/11 03:58:17;;;;;;;;;;;;;;;-1.51;89.47;101303.19;1632210;86;21129;-76
2021/01/11 04:00:43;;;;;;;;;;;;;;;-1.51;89.48;101304.45;1634748;86;21090;-76
2021/01/11 04:03:09;;;;;;;;;;;;;;;-1.51;89.47;101309.92;1644183;86;20713;-76
2021/01/11 04:05:35;;;;;;;;;;;;;;;-1.52;89.51;101312.86;1637161;86;20245;-76
2021/01/11 04:08:02;;;;;;;;;;;;;;;-1.51;89.51;101311.19;1640339;86;20289;-76
2021/01/11 04:10:28;;;;;;;;;;;;;;;-1.50;89.51;101307.45;1629345;86;21243;-76
2021/01/11 04:12:54;;;;;;;;;;;;;;;-1.50;89.52;101303.66;1645012;86;20298;-76
2021/01/11 04:15:20;;;;;;;;;;;;;;;-1.48;89.54;101310.06;1656061;86;21228;-76
2021/01/11 04:17:51;;;;;;;;;;;;;;;-1.48;89.51;101311.33;1633125;85;20293;-76
2021/01/11 04:20:16;;;;;;;;;;;;;;;-1.48;89.50;101305.85;1650743;86;20285;-76
2021/01/11 04:22:43;;;;;;;;;;;;;;;-1.48;89.44;101305.85;1634600;86;21216;-76
2021/01/11 04:25:09;;;;;;;;;;;;;;;-1.49;89.45;101299.05;1631117;86;20275;-76
2021/01/11 04:27:36;;;;;;;;;;;;;;;-1.48;89.51;101305.85;1651151;86;20273;-76
2021/01/11 04:30:02;;;;;;;;;;;;;;;-1.47;89.46;101307.59;1629079;86;20329;-76
2021/01/11 04:32:28;;;;;;;;;;;;;;;-1.48;89.45;101303.31;1654842;85;190517;-76
2021/01/11 04:34:54;;;;;;;;;;;;;;;-1.47;89.44;101302.52;1641574;86;21288;-76
2021/01/11 04:37:20;;;;;;;;;;;;;;;-1.46;89.49;101294.51;1648950;85;21223;-76
2021/01/11 04:39:46;;;;;;;;;;;;;;;-1.46;89.50;101287.77;1646028;85;20342;-76
2021/01/11 04:42:16;;;;;;;;;;;;;;;-1.45;89.45;101283.16;1654507;85;20208;-76
2021/01/11 04:44:42;;;;;;;;;;;;;;;-1.43;89.48;101280.29;1681426;85;20266;-76
2021/01/11 04:47:09;;;;;;;;;;;;;;;-1.42;89.43;101282.42;1601676;84;5000740;-76
2021/01/11 04:49:35;;;;;;;;;;;;;;;-1.42;89.42;101283.69;1668246;84;20172;-75
2021/01/11 04:52:02;;;;;;;;;;;;;;;-1.41;89.46;101281.63;1655481;86;20181;-75
2021/01/11 04:54:30;;;;;;;;;;;;;;;-1.42;89.41;101282.02;1660162;85;20733;-75
2021/01/11 04:56:59;;;;;;;;;;;;;;;-1.42;89.39;101278.63;1657981;85;20274;-75
2021/01/11 04:59:27;;;;;;;;;;;;;;;-1.44;89.37;101277.28;1665388;85;22255;-75
2021/01/11 05:01:53;;;;;;;;;;;;;;;-1.43;89.44;101275.22;1661527;85;20249;-75
2021/01/11 05:04:19;;;;;;;;;;;;;;;-1.43;89.44;101266.34;1662497;85;20265;-75
2021/01/11 05:06:47;;;;;;;;;;;;;;;-1.42;89.42;101268.08;1652526;85;20723;-76
2021/01/11 05:09:15;;;;;;;;;;;;;;;-1.42;89.38;101263.41;1662394;85;20257;-76
2021/01/11 05:11:41;;;;;;;;;;;;;;;-1.42;89.37;101269.34;1637366;85;21162;-76
2021/01/11 05:14:08;;;;;;;;;;;;;;;-1.44;89.37;101258.27;1661846;85;20221;-76
2021/01/11 05:16:37;;;;;;;;;;;;;;;-1.45;89.32;101265.41;1661799;85;20261;-76
2021/01/11 05:19:24;;;;;;;;;;;;;;;-1.45;89.36;101262.87;1666838;85;20249;-76
2021/01/11 05:21:52;;;;;;;;;;;;;;;-1.44;89.35;101259.53;1655579;85;20248;-76
2021/01/11 05:24:32;;;;;;;;;;;;;;;-1.43;89.37;101261.27;1668136;85;22421;-76
2021/01/11 05:26:59;;;;;;;;;;;;;;;-1.43;89.37;101262.53;1661176;85;20265;-76
2021/01/11 05:29:25;;;;;;;;;;;;;;;-1.41;89.40;101253.73;1663145;85;20258;-76
2021/01/11 05:31:57;;;;;;;;;;;;;;;-1.39;89.41;101257.19;1658123;85;20258;-76
2021/01/11 05:34:24;;;;;;;;;;;;;;;-1.39;89.37;101254.25;1636952;86;20265;-76
2021/01/11 05:36:50;;;;;;;;;;;;;;;-1.38;89.36;101256.39;1664164;85;21105;-76
2021/01/11 05:39:16;;;;;;;;;;;;;;;-1.38;89.39;101257.26;1660403;85;20538;-76
2021/01/11 05:41:42;;;;;;;;;;;;;;;-1.35;89.39;101254.85;1662357;85;20528;-76
2021/01/11 05:44:11;;;;;;;;;;;;;;;-1.34;89.39;101247.70;1664038;85;20556;-76
2021/01/11 05:46:37;;;;;;;;;;;;;;;-1.32;89.37;101249.04;1650144;86;20514;-76
2021/01/11 05:49:05;;;;;;;;;;;;;;;-1.31;89.35;101245.70;1662105;85;21220;-81
2021/01/11 05:51:32;;;;;;;;;;;;;;;-1.30;89.36;101246.17;1659563;85;20294;-81
2021/01/11 05:53:58;;;;;;;;;;;;;;;-1.31;89.30;101246.97;1656803;85;20278;-79
2021/01/11 05:56:24;;;;;;;;;;;;;;;-1.31;89.27;101248.23;1657369;85;20257;-81
2021/01/11 05:59:04;;;;;;;;;;;;;;;-1.31;89.27;101248.64;1654745;85;20249;-81
2021/01/11 06:01:31;;;;;;;;;;;;;;;-1.31;89.30;101241.90;1659557;85;21313;-81
2021/01/11 06:03:57;;;;;;;;;;;;;;;-1.29;89.32;101239.02;1652559;86;20565;-81
2021/01/11 06:06:24;;;;;;;;;;;;;;;-1.25;89.37;101237.08;1653001;85;20269;-81
2021/01/11 06:08:53;;;;;;;;;;;;;;;-1.23;89.41;101234.20;1654096;85;20503;-81
2021/01/11 06:11:25;;;;;;;;;;;;;;;-1.19;89.41;101233.53;1661308;85;20257;-80
2021/01/11 06:13:54;;;;;;;;;;;;;;;-1.17;89.36;101230.66;1658411;85;21278;-80
2021/01/11 06:16:21;;;;;;;;;;;;;;;-1.15;89.35;101235.79;1669115;85;20249;-80
2021/01/11 06:18:49;;;;;;;;;;;;;;;-1.13;89.36;101235.45;1662991;85;20273;-80
2021/01/11 06:21:16;;;;;;;;;;;;;;;-1.11;89.36;101235.98;1662935;85;20255;-80
2021/01/11 06:23:42;;;;;;;;;;;;;;;-1.08;89.33;101237.78;1665935;85;20286;-80
2021/01/11 06:26:28;;;;;;;;;;;;;;;-1.05;89.34;101245.52;1673336;85;21273;-80
2021/01/11 06:28:55;;;;;;;;;;;;;;;-1.03;89.37;101241.33;1660309;85;20614;-80
2021/01/11 06:31:31;;;;;;;;;;;;;;;-1.00;89.31;101245.27;1671507;85;20581;-80
2021/01/11 06:33:57;;;;;;;;;;;;;;;-1.00;89.31;101241.06;1658295;85;20650;-80
2021/01/11 06:36:31;;;;;;;;;;;;;;;-0.98;89.30;101241.52;1658794;85;20279;-80
2021/01/11 06:39:01;;;;;;;;;;;;;;;-0.95;89.32;101241.24;1659532;85;21185;-81
2021/01/11 06:41:28;;;;;;;;;;;;;;;-0.93;89.32;101237.09;1658714;85;20301;-80
2021/01/11 06:43:58;;;;;;;;;;;;;;;-0.89;89.38;101236.41;1660448;85;20283;-80
2021/01/11 06:46:30;;;;;;;;;;;;;;;-0.87;89.33;101231.00;1666112;85;20301;-80
2021/01/11 06:49:01;;;;;;;;;;;;;;;-0.83;89.33;101237.06;1662024;84;20744;-80
2021/01/11 06:51:36;;;;;;;;;;;;;;;-0.82;89.26;101234.59;1656745;86;21270;-80
2021/01/11 06:54:09;;;;;;;;;;;;;;;-0.81;89.26;101235.45;1655813;85;20290;-80
2021/01/11 06:56:37;;;;;;;;;;;;;;;-0.80;89.20;101234.65;1661434;85;20285;-81
2021/01/11 06:59:07;;;;;;;;;;;;;;;-0.79;89.18;101232.57;1660559;85;20601;-81
2021/01/11 07:01:35;;;;;;;;;;;;;;;-0.79;89.14;101234.70;1656659;85;20249;-81
2021/01/11 07:04:01;;;;;;;;;;;;;;;-0.79;89.12;101228.77;1653381;86;21246;-80
2021/01/11 07:06:40;;;;;;;;;;;;;;;-0.79;89.13;101218.20;1658071;86;21522;-80
2021/01/11 07:09:11;;;;;;;;;;;;;;;-0.77;89.13;101222.08;1651493;86;20303;-80
2021/01/11 07:11:39;;;;;;;;;;;;;;;-0.77;89.12;101217.86;1643849;85;20260;-80
2021/01/11 07:14:06;;;;;;;;;;;;;;;-0.76;89.10;101222.13;1658054;85;20265;-80
2021/01/11 07:16:45;;;;;;;;;;;;;;;-0.73;89.13;101224.80;1662574;85;21163;-80
2021/01/11 07:19:16;;;;;;;;;;;;;;;-0.71;89.16;101216.83;1662083;85;20285;-80
2021/01/11 07:21:42;;;;;;;;;;;;;;;-0.69;89.12;101211.41;1661890;85;20263;-81
2021/01/11 07:24:10;;;;;;;;;;;;;;;-0.67;89.10;101222.50;1662054;86;20724;-81
2021/01/11 07:26:36;;;;;;;;;;;;;;;-0.65;89.08;101222.55;1660572;85;20311;-81
2021/01/11 07:29:08;;;;;;;;;;;;;;;-0.63;89.08;101221.34;1638248;85;21136;-81
2021/01/11 07:31:39;;;;;;;;;;;;;;;-0.61;89.09;101215.92;1668136;85;20311;-81
2021/01/11 07:34:15;;;;;;;;;;;;;;;-0.58;89.14;101216.05;1661164;85;20333;-82
2021/01/11 07:36:44;;;;;;;;;;;;;;;-0.56;89.11;101215.30;1650835;85;20292;-81
2021/01/11 07:39:12;;;;;;;;;;;;;;;-0.52;89.11;101217.55;1659684;85;20297;-81
2021/01/11 07:41:41;;;;;;;;;;;;;;;-0.50;89.12;101208.28;1659862;85;21248;-81
2021/01/11 07:44:22;;;;;;;;;;;;;;;-0.48;89.11;101199.91;1663289;85;20326;-81
2021/01/11 07:46:57;;;;;;;;;;;;;;;-0.44;89.14;101206.84;1668932;85;20338;-80
2021/01/11 07:49:25;;;;;;;;;;;;;;;-0.40;89.11;101205.28;1659584;85;20313;-80
2021/01/11 07:51:52;;;;;;;;;;;;;;;-0.38;89.11;101209.61;1661452;85;20297;-80
2021/01/11 07:54:20;;;;;;;;;;;;;;;-0.34;89.08;101206.37;1662592;85;21987;-80
2021/01/11 07:56:48;;;;;;;;;;;;;;;-0.32;89.09;101207.70;1653742;85;20173;-80
2021/01/11 07:59:14;;;;;;;;;;;;;;;-0.29;89.07;101203.14;1664456;85;20258;-79
2021/01/11 08:01:43;;;;;;;;;;;;;;;-0.28;89.04;101209.55;1657305;85;20258;-79
2021/01/11 08:04:13;;;;;;;;;;;;;;;-0.27;89.02;101206.61;1666114;85;20283;-80
2021/01/11 08:06:51;;;;;;;;;;;;;;;-0.26;88.99;101206.66;1665514;85;20583;-80
2021/01/11 08:09:21;;;;;;;;;;;;;;;-0.23;89.00;101211.86;1662714;85;20254;-80
2021/01/11 08:11:47;;;;;;;;;;;;;;;-0.23;88.97;101211.86;1662485;85;20256;-80
2021/01/11 08:14:13;;;;;;;;;;;;;;;-0.21;88.98;101211.92;1658016;86;20196;-80
2021/01/11 08:16:41;;;;;;;;;;;;;;;-0.19;88.98;101212.44;1656260;85;20285;-80
2021/01/11 08:19:11;;;;;;;;;;;;;;;-0.17;88.99;101209.55;1661334;86;21165;-80
2021/01/11 08:21:39;;;;;;;;;;;;;;;-0.13;89.00;101213.94;1661519;85;20281;-80
2021/01/11 08:24:07;;;;;;;;;;;;;;;-0.11;88.95;101215.27;1660736;86;20300;-80
2021/01/11 08:26:36;;;;;;;;;;;;;;;-0.09;88.93;101216.19;1662840;85;20170;-80
2021/01/11 08:29:02;;;;;;;;;;;;;;;-0.07;88.92;101212.89;1661707;86;20266;-80
2021/01/11 08:31:29;;;;;;;;;;;;;;;-0.05;88.91;101211.67;1650176;85;21235;-80
2021/01/11 08:33:56;;;;;;;;;;;;;;;-0.02;88.90;101216.87;1656646;85;20283;-80
2021/01/11 08:36:25;;;;;;;;;;;;;;;0.02;88.98;101214.00;1656926;85;20299;-80
2021/01/11 08:39:07;;;;;;;;;;;;;;;0.06;88.91;101218.39;1660929;85;20294;-80
2021/01/11 08:41:35;;;;;;;;;;;;;;;0.09;88.89;101214.69;1639539;85;20290;-80
2021/01/11 08:44:02;;;;;;;;;;;;;;;0.14;88.92;101209.36;1668290;85;21153;-80
2021/01/11 08:46:56;;;;;;;;;;;;;;;0.18;88.92;101204.44;1666291;85;20282;-80
2021/01/11 08:49:22;;;;;;;;;;;;;;;0.24;88.92;101212.28;1634579;85;20293;-80
2021/01/11 08:51:49;;;;;;;;;;;;;;;0.29;88.92;101214.58;1635181;86;20435;-80
2021/01/11 08:54:25;;;;;;;;;;;;;;;0.31;88.86;101211.69;1636903;86;20552;-80
2021/01/11 08:56:51;;;;;;;;;;;;;;;0.33;88.81;101211.33;1631166;86;21230;-80
2021/01/11 08:59:18;;;;;;;;;;;;;;;0.36;88.81;101214.80;1628817;86;20268;-80
2021/01/11 09:01:44;;;;;;;;;;;;;;;0.36;88.75;101213.52;1635363;86;20502;-80
2021/01/11 09:04:12;;;;;;;;;;;;;;;0.37;88.80;101219.94;1632309;86;20286;-80
2021/01/11 09:06:40;;;;;;;;;;;;;;;0.38;88.78;101216.98;1625681;86;21239;-80
2021/01/11 09:09:19;;;;;;;;;;;;;;;0.40;88.73;101213.69;1631171;86;21114;-80
2021/01/11 09:11:47;;;;;;;;;;;;;;;0.42;88.76;101216.28;1628236;86;20505;-80
2021/01/11 09:14:15;;;;;;;;;;;;;;;0.43;88.73;101221.83;1618060;86;20300;-80
2021/01/11 09:16:41;;;;;;;;;;;;;;;0.45;88.74;101227.84;1630623;86;20345;-80
2021/01/11 09:19:11;;;;;;;;;;;;;;;0.45;88.74;101224.89;1626674;86;20322;-80
2021/01/11 09:21:39;;;;;;;;;;;;;;;0.45;88.74;101213.44;1627124;86;21372;-81
2021/01/11 09:24:06;;;;;;;;;;;;;;;0.44;88.62;101214.66;1632186;86;20567;-81
2021/01/11 09:26:35;;;;;;;;;;;;;;;0.45;88.69;101218.94;1632199;86;20574;-81
2021/01/11 09:29:01;;;;;;;;;;;;;;;0.44;88.65;101221.88;1632284;86;20285;-81
2021/01/11 09:31:27;;;;;;;;;;;;;;;0.43;88.66;101217.61;1614798;86;20328;-81
2021/01/11 09:33:53;;;;;;;;;;;;;;;0.43;88.65;101220.56;1628161;86;21208;-81
2021/01/11 09:36:20;;;;;;;;;;;;;;;0.44;88.71;101221.88;1610855;87;39633;-81
2021/01/11 09:38:47;;;;;;;;;;;;;;;0.44;88.71;101222.29;1625460;86;20274;-81
2021/01/11 09:41:15;;;;;;;;;;;;;;;0.47;88.73;101224.53;1616039;86;20257;-81
2021/01/11 09:43:41;;;;;;;;;;;;;;;0.46;88.64;101221.53;1622967;86;20280;-81
2021/01/11 09:46:08;;;;;;;;;;;;;;;0.45;88.65;101222.34;1633092;86;21178;-81
2021/01/11 09:48:34;;;;;;;;;;;;;;;0.45;88.64;101212.57;1648057;85;20271;-81
2021/01/11 09:51:00;;;;;;;;;;;;;;;0.44;88.63;101221.88;1646184;85;20164;-81
2021/01/11 09:53:26;;;;;;;;;;;;;;;0.43;88.61;101223.97;1655668;85;20662;-81
2021/01/11 09:55:52;;;;;;;;;;;;;;;0.42;88.62;101220.97;1668253;85;20406;-81
2021/01/11 09:58:18;;;;;;;;;;;;;;;0.43;88.60;101222.70;1664759;85;21333;-81
2021/01/11 10:00:44;;;;;;;;;;;;;;;0.45;88.71;101221.07;1660561;85;20306;-81
2021/01/11 10:03:10;;;;;;;;;;;;;;;0.45;88.68;101221.48;1660552;85;20287;-81
2021/01/11 10:05:36;;;;;;;;;;;;;;;0.45;88.70;101214.70;1641347;85;20609;-81
2021/01/11 10:08:02;;;;;;;;;;;;;;;0.46;88.73;101225.34;1657201;85;21205;-81
2021/01/11 10:10:28;;;;;;;;;;;;;;;0.50;88.74;101225.05;1659430;85;21330;-81
2021/01/11 10:12:55;;;;;;;;;;;;;;;0.52;88.73;101228.07;1658326;85;20240;-81
2021/01/11 10:15:21;;;;;;;;;;;;;;;0.53;88.69;101227.66;1658916;85;20425;-81
2021/01/11 10:17:47;;;;;;;;;;;;;;;0.51;88.63;101221.69;1661044;85;20430;-81
2021/01/11 10:20:13;;;;;;;;;;;;;;;0.50;88.63;101220.83;1658213;85;20241;-81
2021/01/11 10:22:39;;;;;;;;;;;;;;;0.51;88.63;101206.02;1661482;85;21116;-81
2021/01/11 10:25:07;;;;;;;;;;;;;;;0.52;88.71;101214.52;1648845;86;20556;-81
2021/01/11 10:27:33;;;;;;;;;;;;;;;0.53;88.69;101203.09;1662512;85;20265;-81
2021/01/11 10:29:59;;;;;;;;;;;;;;;0.54;88.65;101213.72;1662889;86;20556;-81
2021/01/11 10:32:25;;;;;;;;;;;;;;;0.53;88.61;101206.90;1653698;86;20239;-81
2021/01/11 10:34:51;;;;;;;;;;;;;;;0.54;88.67;101200.13;1661613;85;21183;-81
2021/01/11 10:37:17;;;;;;;;;;;;;;;0.56;88.71;101199.37;1661651;86;20297;-81
2021/01/11 10:39:43;;;;;;;;;;;;;;;0.57;88.67;101198.97;1639735;85;20305;-81
2021/01/11 10:42:09;;;;;;;;;;;;;;;0.54;88.59;101202.27;1643131;86;20508;-81
2021/01/11 10:44:35;;;;;;;;;;;;;;;0.53;88.59;101200.95;1646395;86;20289;-81
2021/01/11 10:47:01;;;;;;;;;;;;;;;0.53;88.60;101207.30;1644846;86;21293;-81
2021/01/11 10:49:28;;;;;;;;;;;;;;;0.51;88.60;101198.38;1650512;86;20310;-81
2021/01/11 10:51:57;;;;;;;;;;;;;;;0.52;88.63;101193.72;1666556;85;20490;-81
2021/01/11 10:54:26;;;;;;;;;;;;;;;0.53;88.68;101194.18;1666814;85;20571;-81
2021/01/11 10:56:52;;;;;;;;;;;;;;;0.54;88.66;101190.82;1658479;85;20285;-81
2021/01/11 10:59:19;;;;;;;;;;;;;;;0.56;88.66;101181.97;1669931;85;21212;-81
2021/01/11 11:01:45;;;;;;;;;;;;;;;0.58;88.67;101180.34;1662118;85;20277;-82
2021/01/11 11:04:12;;;;;;;;;;;;;;;0.59;88.67;101168.94;1652390;85;20300;-82
2021/01/11 11:06:38;;;;;;;;;;;;;;;0.62;88.66;101169.45;1664172;85;20301;-81
2021/01/11 11:09:04;;;;;;;;;;;;;;;0.65;88.72;101172.09;1664506;85;20663;-81
2021/01/11 11:11:30;;;;;;;;;;;;;;;0.66;88.64;101173.83;1668354;85;21196;-81
2021/01/11 11:13:56;;;;;;;;;;;;;;;0.66;88.63;101173.42;1662341;85;20556;-82
2021/01/11 11:16:22;;;;;;;;;;;;;;;0.65;88.58;101168.28;1668309;85;20280;-82
2021/01/11 11:18:48;;;;;;;;;;;;;;;0.65;88.58;101163.19;1660887;85;20305;-82
2021/01/11 11:21:15;;;;;;;;;;;;;;;0.64;88.61;101162.33;1647821;85;20738;-81
2021/01/11 11:23:41;;;;;;;;;;;;;;;0.63;88.56;101156.78;1660645;85;21431;-81
2021/01/11 11:26:08;;;;;;;;;;;;;;;0.61;88.54;101149.50;1658436;85;20313;-81
2021/01/11 11:28:35;;;;;;;;;;;;;;;0.61;88.57;101150.77;1668429;85;20290;-81
2021/01/11 11:31:01;;;;;;;;;;;;;;;0.61;88.59;101146.95;1675380;85;20279;-81
2021/01/11 11:33:28;;;;;;;;;;;;;;;0.60;88.59;101146.50;1663054;85;20563;-81
2021/01/11 11:35:54;;;;;;;;;;;;;;;0.60;88.58;101141.41;1658238;85;21240;-81
2021/01/11 11:38:20;;;;;;;;;;;;;;;0.62;88.63;101133.83;1661525;86;20304;-81
2021/01/11 11:40:47;;;;;;;;;;;;;;;0.63;88.67;101133.01;1657591;85;20289;-81
2021/01/11 11:43:14;;;;;;;;;;;;;;;0.65;88.71;101138.61;1661924;86;20376;-81
2021/01/11 11:45:42;;;;;;;;;;;;;;;0.68;88.67;101133.16;1662214;85;20284;-81
2021/01/11 11:48:09;;;;;;;;;;;;;;;0.67;88.65;101128.48;1668096;85;21261;-81
2021/01/11 11:50:35;;;;;;;;;;;;;;;0.67;88.61;101124.66;1645341;85;20874;-81
2021/01/11 11:53:01;;;;;;;;;;;;;;;0.67;88.62;101123.39;1645075;85;20270;-81
2021/01/11 11:55:27;;;;;;;;;;;;;;;0.68;88.61;101115.34;1643132;85;20257;-81
2021/01/11 11:57:53;;;;;;;;;;;;;;;0.66;88.62;101111.07;1639365;87;20254;-81
2021/01/11 12:00:19;;;;;;;;;;;;;;;0.65;88.57;101113.56;1657589;85;21190;-81
2021/01/11 12:02:48;;;;;;;;;;;;;;;0.64;88.57;101107.61;1649426;85;20265;-81
2021/01/11 12:05:16;;;;;;;;;;;;;;;0.63;88.60;101108.83;1646997;85;20274;-81
2021/01/11 12:07:42;;;;;;;;;;;;;;;0.62;88.60;101102.88;1644073;85;20302;-81
2021/01/11 12:10:10;;;;;;;;;;;;;;;0.62;88.66;101097.79;1653286;85;20854;-81
2021/01/11 12:12:36;;;;;;;;;;;;;;;0.64;88.69;101093.61;1640716;85;22019;-81
2021/01/11 12:15:04;;;;;;;;;;;;;;;0.66;88.66;101091.98;1645191;85;20345;-81
2021/01/11 12:17:30;;;;;;;;;;;;;;;0.64;88.60;101089.80;1641833;85;20258;-81
2021/01/11 12:19:56;;;;;;;;;;;;;;;0.64;88.64;101084.70;1647450;85;20225;-81
2021/01/11 12:22:22;;;;;;;;;;;;;;;0.64;88.61;101087.25;1645920;85;20309;-81
2021/01/11 12:24:48;;;;;;;;;;;;;;;0.65;88.61;101083.03;1636945;85;21225;-82
2021/01/11 12:27:15;;;;;;;;;;;;;;;0.64;88.56;101078.34;1646869;85;20817;-82
2021/01/11 12:29:41;;;;;;;;;;;;;;;0.65;88.59;101079.21;1629905;85;20314;-82
2021/01/11 12:32:07;;;;;;;;;;;;;;;0.65;88.56;101081.76;1637372;85;20399;-81
2021/01/11 12:34:38;;;;;;;;;;;;;;;0.65;88.56;101067.76;1637842;86;20322;-81
2021/01/11 12:37:01;;;;;;;;;;;;;;;0.64;88.52;101074.94;1643504;85;20297;-81
2021/01/11 12:39:28;;;;;;;;;;;;;;;0.61;88.53;101064.25;1635628;85;20287;-81
2021/01/11 12:41:54;;;;;;;;;;;;;;;0.61;88.52;101066.80;1649452;85;20297;-81
2021/01/11 12:44:20;;;;;;;;;;;;;;;0.58;88.47;101059.06;1644535;85;21059;-81